sensor_id;sensor_type;location;lat;lon;timestamp;P1;durP1;ratioP1;P2;durP2;ratioP2
7108;SDS011;29079;41.930;25.558;2023-06-14T00:02:07;11.43;;;6.57;;
7108;SDS011;29079;41.930;25.558;2023-06-14T00:04:56;9.45;;;6.53;;
7108;SDS011;29079;41.930;25.558;2023-06-14T00:07:46;7.18;;;6.20;;
7108;SDS011;29079;41.930;25.558;2023-06-14T00:10:34;9.55;;;5.90;;
7108;SDS011;29079;41.930;25.558;2023-06-14T00:13:22;8.88;;;6.43;;
7108;SDS011;29079;41.930;25.558;2023-06-14T00:16:12;9.05;;;6.20;;
7108;SDS011;29079;41.930;25.558;2023-06-14T00:19:00;9.32;;;5.85;;
7108;SDS011;29079;41.930;25.558;2023-06-14T00:21:49;8.63;;;5.97;;
7108;SDS011;29079;41.930;25.558;2023-06-14T00:24:38;7.13;;;6.30;;
7108;SDS011;29079;41.930;25.558;2023-06-14T00:27:25;9.18;;;7.25;;
7108;SDS011;29079;41.930;25.558;2023-06-14T00:30:13;9.07;;;6.63;;
7108;SDS011;29079;41.930;25.558;2023-06-14T00:33:03;6.40;;;5.15;;
7108;SDS011;29079;41.930;25.558;2023-06-14T00:35:51;10.95;;;6.35;;
7108;SDS011;29079;41.930;25.558;2023-06-14T00:38:40;8.93;;;6.07;;
7108;SDS011;29079;41.930;25.558;2023-06-14T00:41:28;11.23;;;6.55;;
7108;SDS011;29079;41.930;25.558;2023-06-14T00:44:16;6.22;;;5.63;;
7108;SDS011;29079;41.930;25.558;2023-06-14T00:47:04;9.35;;;6.75;;
7108;SDS011;29079;41.930;25.558;2023-06-14T00:49:54;7.80;;;6.20;;
7108;SDS011;29079;41.930;25.558;2023-06-14T00:52:43;10.50;;;5.95;;
7108;SDS011;29079;41.930;25.558;2023-06-14T00:55:31;8.13;;;6.20;;
7108;SDS011;29079;41.930;25.558;2023-06-14T00:58:19;10.90;;;6.15;;
7108;SDS011;29079;41.930;25.558;2023-06-14T01:01:10;8.10;;;6.03;;
7108;SDS011;29079;41.930;25.558;2023-06-14T01:03:58;8.23;;;6.00;;
7108;SDS011;29079;41.930;25.558;2023-06-14T01:06:49;11.02;;;6.18;;
7108;SDS011;29079;41.930;25.558;2023-06-14T01:09:54;8.88;;;6.47;;
7108;SDS011;29079;41.930;25.558;2023-06-14T01:12:52;9.52;;;6.78;;
7108;SDS011;29079;41.930;25.558;2023-06-14T01:15:46;9.93;;;6.57;;
7108;SDS011;29079;41.930;25.558;2023-06-14T01:18:34;8.60;;;6.78;;
7108;SDS011;29079;41.930;25.558;2023-06-14T01:21:24;10.85;;;7.05;;
7108;SDS011;29079;41.930;25.558;2023-06-14T01:24:14;9.85;;;8.07;;
7108;SDS011;29079;41.930;25.558;2023-06-14T01:27:01;10.77;;;6.72;;
7108;SDS011;29079;41.930;25.558;2023-06-14T01:29:51;11.70;;;7.00;;
7108;SDS011;29079;41.930;25.558;2023-06-14T01:32:42;9.05;;;6.75;;
7108;SDS011;29079;41.930;25.558;2023-06-14T01:35:31;11.55;;;7.55;;
7108;SDS011;29079;41.930;25.558;2023-06-14T01:38:20;12.48;;;7.65;;
7108;SDS011;29079;41.930;25.558;2023-06-14T01:41:13;12.25;;;7.13;;
7108;SDS011;29079;41.930;25.558;2023-06-14T01:44:02;8.70;;;6.68;;
7108;SDS011;29079;41.930;25.558;2023-06-14T01:46:52;16.27;;;7.78;;
7108;SDS011;29079;41.930;25.558;2023-06-14T01:49:40;9.43;;;7.20;;
7108;SDS011;29079;41.930;25.558;2023-06-14T01:52:28;15.75;;;8.32;;
7108;SDS011;29079;41.930;25.558;2023-06-14T01:55:16;11.40;;;7.07;;
7108;SDS011;29079;41.930;25.558;2023-06-14T01:58:05;9.93;;;7.78;;
7108;SDS011;29079;41.930;25.558;2023-06-14T02:00:53;14.77;;;8.15;;
7108;SDS011;29079;41.930;25.558;2023-06-14T02:03:43;12.60;;;7.72;;
7108;SDS011;29079;41.930;25.558;2023-06-14T02:06:31;12.25;;;7.43;;
7108;SDS011;29079;41.930;25.558;2023-06-14T02:09:19;10.98;;;7.85;;
7108;SDS011;29079;41.930;25.558;2023-06-14T02:12:07;12.43;;;7.93;;
7108;SDS011;29079;41.930;25.558;2023-06-14T02:14:57;13.40;;;9.57;;
7108;SDS011;29079;41.930;25.558;2023-06-14T02:17:45;13.32;;;8.30;;
7108;SDS011;29079;41.930;25.558;2023-06-14T02:20:35;10.38;;;8.63;;
7108;SDS011;29079;41.930;25.558;2023-06-14T02:23:23;9.35;;;7.95;;
7108;SDS011;29079;41.930;25.558;2023-06-14T02:26:11;13.75;;;8.30;;
7108;SDS011;29079;41.930;25.558;2023-06-14T02:28:59;12.05;;;7.55;;
7108;SDS011;29079;41.930;25.558;2023-06-14T02:31:48;17.10;;;8.20;;
7108;SDS011;29079;41.930;25.558;2023-06-14T02:34:36;11.88;;;7.95;;
7108;SDS011;29079;41.930;25.558;2023-06-14T02:37:27;7.82;;;6.55;;
7108;SDS011;29079;41.930;25.558;2023-06-14T02:40:15;10.32;;;7.75;;
7108;SDS011;29079;41.930;25.558;2023-06-14T02:43:03;10.82;;;7.20;;
7108;SDS011;29079;41.930;25.558;2023-06-14T02:45:51;11.52;;;8.73;;
7108;SDS011;29079;41.930;25.558;2023-06-14T02:48:40;12.00;;;8.05;;
7108;SDS011;29079;41.930;25.558;2023-06-14T02:51:28;12.23;;;8.15;;
7108;SDS011;29079;41.930;25.558;2023-06-14T02:54:16;11.07;;;7.93;;
7108;SDS011;29079;41.930;25.558;2023-06-14T02:57:04;12.93;;;8.52;;
7108;SDS011;29079;41.930;25.558;2023-06-14T02:59:54;14.27;;;8.32;;
7108;SDS011;29079;41.930;25.558;2023-06-14T03:02:41;10.70;;;8.32;;
7108;SDS011;29079;41.930;25.558;2023-06-14T03:05:32;13.82;;;9.05;;
7108;SDS011;29079;41.930;25.558;2023-06-14T03:08:20;11.32;;;8.52;;
7108;SDS011;29079;41.930;25.558;2023-06-14T03:11:13;14.60;;;9.47;;
7108;SDS011;29079;41.930;25.558;2023-06-14T03:14:01;13.80;;;8.80;;
7108;SDS011;29079;41.930;25.558;2023-06-14T03:16:50;13.45;;;8.55;;
7108;SDS011;29079;41.930;25.558;2023-06-14T03:19:43;11.63;;;9.23;;
7108;SDS011;29079;41.930;25.558;2023-06-14T03:22:32;12.55;;;8.88;;
7108;SDS011;29079;41.930;25.558;2023-06-14T03:25:20;11.23;;;9.55;;
7108;SDS011;29079;41.930;25.558;2023-06-14T03:28:09;11.25;;;9.05;;
7108;SDS011;29079;41.930;25.558;2023-06-14T03:30:57;11.55;;;9.45;;
7108;SDS011;29079;41.930;25.558;2023-06-14T03:33:45;12.52;;;9.48;;
7108;SDS011;29079;41.930;25.558;2023-06-14T03:36:32;14.50;;;9.00;;
7108;SDS011;29079;41.930;25.558;2023-06-14T03:39:22;14.25;;;9.23;;
7108;SDS011;29079;41.930;25.558;2023-06-14T03:42:10;14.85;;;9.52;;
7108;SDS011;29079;41.930;25.558;2023-06-14T03:44:58;11.75;;;9.02;;
7108;SDS011;29079;41.930;25.558;2023-06-14T03:47:46;11.95;;;9.98;;
7108;SDS011;29079;41.930;25.558;2023-06-14T03:50:34;11.10;;;9.07;;
7108;SDS011;29079;41.930;25.558;2023-06-14T03:53:24;18.08;;;10.25;;
7108;SDS011;29079;41.930;25.558;2023-06-14T03:56:15;15.50;;;9.40;;
7108;SDS011;29079;41.930;25.558;2023-06-14T03:59:03;17.77;;;9.63;;
7108;SDS011;29079;41.930;25.558;2023-06-14T04:01:51;17.02;;;10.25;;
7108;SDS011;29079;41.930;25.558;2023-06-14T04:04:39;14.32;;;9.77;;
7108;SDS011;29079;41.930;25.558;2023-06-14T04:07:30;14.57;;;10.07;;
7108;SDS011;29079;41.930;25.558;2023-06-14T04:10:18;15.23;;;11.15;;
7108;SDS011;29079;41.930;25.558;2023-06-14T04:13:08;21.58;;;11.80;;
7108;SDS011;29079;41.930;25.558;2023-06-14T04:15:58;17.20;;;11.43;;
7108;SDS011;29079;41.930;25.558;2023-06-14T04:18:46;17.98;;;10.98;;
7108;SDS011;29079;41.930;25.558;2023-06-14T04:21:34;14.23;;;11.85;;
7108;SDS011;29079;41.930;25.558;2023-06-14T04:24:22;16.33;;;11.32;;
7108;SDS011;29079;41.930;25.558;2023-06-14T04:27:18;19.85;;;11.85;;
7108;SDS011;29079;41.930;25.558;2023-06-14T04:30:09;19.83;;;13.05;;
7108;SDS011;29079;41.930;25.558;2023-06-14T04:32:59;19.17;;;11.73;;
7108;SDS011;29079;41.930;25.558;2023-06-14T04:35:47;16.30;;;11.75;;
7108;SDS011;29079;41.930;25.558;2023-06-14T04:38:35;16.85;;;12.50;;
7108;SDS011;29079;41.930;25.558;2023-06-14T04:41:23;21.55;;;13.00;;
7108;SDS011;29079;41.930;25.558;2023-06-14T04:44:15;19.13;;;12.10;;
7108;SDS011;29079;41.930;25.558;2023-06-14T04:47:05;20.13;;;12.40;;
7108;SDS011;29079;41.930;25.558;2023-06-14T04:49:53;24.08;;;13.52;;
7108;SDS011;29079;41.930;25.558;2023-06-14T04:52:41;23.23;;;15.23;;
7108;SDS011;29079;41.930;25.558;2023-06-14T04:55:29;21.90;;;13.55;;
7108;SDS011;29079;41.930;25.558;2023-06-14T04:58:17;19.83;;;13.30;;
7108;SDS011;29079;41.930;25.558;2023-06-14T05:01:05;18.45;;;13.23;;
7108;SDS011;29079;41.930;25.558;2023-06-14T05:03:57;17.48;;;11.32;;
7108;SDS011;29079;41.930;25.558;2023-06-14T05:06:45;17.05;;;13.48;;
7108;SDS011;29079;41.930;25.558;2023-06-14T05:09:34;24.80;;;14.88;;
7108;SDS011;29079;41.930;25.558;2023-06-14T05:12:22;22.80;;;13.63;;
7108;SDS011;29079;41.930;25.558;2023-06-14T05:15:10;16.55;;;11.93;;
7108;SDS011;29079;41.930;25.558;2023-06-14T05:17:58;19.52;;;12.05;;
7108;SDS011;29079;41.930;25.558;2023-06-14T05:20:47;21.75;;;13.55;;
7108;SDS011;29079;41.930;25.558;2023-06-14T05:23:36;14.18;;;11.43;;
7108;SDS011;29079;41.930;25.558;2023-06-14T05:26:23;16.70;;;10.10;;
7108;SDS011;29079;41.930;25.558;2023-06-14T05:29:14;12.00;;;10.07;;
7108;SDS011;29079;41.930;25.558;2023-06-14T05:32:02;19.02;;;11.98;;
7108;SDS011;29079;41.930;25.558;2023-06-14T05:34:51;13.70;;;10.85;;
7108;SDS011;29079;41.930;25.558;2023-06-14T05:37:40;13.43;;;11.18;;
7108;SDS011;29079;41.930;25.558;2023-06-14T05:40:28;17.17;;;10.82;;
7108;SDS011;29079;41.930;25.558;2023-06-14T05:43:16;12.82;;;10.30;;
7108;SDS011;29079;41.930;25.558;2023-06-14T05:46:05;13.30;;;9.68;;
7108;SDS011;29079;41.930;25.558;2023-06-14T05:48:53;17.73;;;11.00;;
7108;SDS011;29079;41.930;25.558;2023-06-14T05:51:42;12.65;;;10.00;;
7108;SDS011;29079;41.930;25.558;2023-06-14T05:54:32;13.30;;;10.10;;
7108;SDS011;29079;41.930;25.558;2023-06-14T05:57:20;15.85;;;11.25;;
7108;SDS011;29079;41.930;25.558;2023-06-14T06:00:08;15.77;;;10.13;;
7108;SDS011;29079;41.930;25.558;2023-06-14T06:03:00;23.58;;;12.35;;
7108;SDS011;29079;41.930;25.558;2023-06-14T06:05:48;14.30;;;9.32;;
7108;SDS011;29079;41.930;25.558;2023-06-14T06:08:36;20.92;;;12.82;;
7108;SDS011;29079;41.930;25.558;2023-06-14T06:11:26;26.77;;;14.15;;
7108;SDS011;29079;41.930;25.558;2023-06-14T06:14:26;17.83;;;11.90;;
7108;SDS011;29079;41.930;25.558;2023-06-14T06:17:13;20.58;;;12.55;;
7108;SDS011;29079;41.930;25.558;2023-06-14T06:20:02;20.13;;;12.57;;
7108;SDS011;29079;41.930;25.558;2023-06-14T06:22:51;17.05;;;10.05;;
7108;SDS011;29079;41.930;25.558;2023-06-14T06:25:39;16.73;;;11.43;;
7108;SDS011;29079;41.930;25.558;2023-06-14T06:28:29;13.65;;;11.05;;
7108;SDS011;29079;41.930;25.558;2023-06-14T06:31:16;10.65;;;9.25;;
7108;SDS011;29079;41.930;25.558;2023-06-14T06:34:04;14.43;;;11.27;;
7108;SDS011;29079;41.930;25.558;2023-06-14T06:36:52;13.43;;;11.02;;
7108;SDS011;29079;41.930;25.558;2023-06-14T06:39:41;29.63;;;11.23;;
7108;SDS011;29079;41.930;25.558;2023-06-14T06:42:29;14.15;;;10.52;;
7108;SDS011;29079;41.930;25.558;2023-06-14T06:45:18;15.90;;;12.07;;
7108;SDS011;29079;41.930;25.558;2023-06-14T06:48:10;12.52;;;9.20;;
7108;SDS011;29079;41.930;25.558;2023-06-14T06:50:58;10.15;;;9.10;;
7108;SDS011;29079;41.930;25.558;2023-06-14T06:53:51;13.23;;;9.43;;
7108;SDS011;29079;41.930;25.558;2023-06-14T06:56:40;12.32;;;9.45;;
7108;SDS011;29079;41.930;25.558;2023-06-14T06:59:28;14.90;;;9.88;;
7108;SDS011;29079;41.930;25.558;2023-06-14T07:02:18;14.55;;;10.05;;
7108;SDS011;29079;41.930;25.558;2023-06-14T07:05:06;15.15;;;9.02;;
7108;SDS011;29079;41.930;25.558;2023-06-14T07:07:54;12.43;;;7.97;;
7108;SDS011;29079;41.930;25.558;2023-06-14T07:10:43;11.73;;;7.93;;
7108;SDS011;29079;41.930;25.558;2023-06-14T07:13:31;13.30;;;8.60;;
7108;SDS011;29079;41.930;25.558;2023-06-14T07:16:19;11.15;;;8.63;;
7108;SDS011;29079;41.930;25.558;2023-06-14T07:19:08;17.35;;;8.00;;
7108;SDS011;29079;41.930;25.558;2023-06-14T07:21:56;9.88;;;7.97;;
7108;SDS011;29079;41.930;25.558;2023-06-14T07:24:44;14.52;;;9.40;;
7108;SDS011;29079;41.930;25.558;2023-06-14T07:27:33;12.45;;;9.45;;
7108;SDS011;29079;41.930;25.558;2023-06-14T07:30:21;13.10;;;8.80;;
7108;SDS011;29079;41.930;25.558;2023-06-14T07:33:12;17.02;;;9.30;;
7108;SDS011;29079;41.930;25.558;2023-06-14T07:36:01;11.10;;;8.70;;
7108;SDS011;29079;41.930;25.558;2023-06-14T07:38:49;9.70;;;8.07;;
7108;SDS011;29079;41.930;25.558;2023-06-14T07:41:37;19.83;;;8.27;;
7108;SDS011;29079;41.930;25.558;2023-06-14T07:44:27;7.93;;;6.45;;
7108;SDS011;29079;41.930;25.558;2023-06-14T07:47:17;13.10;;;7.00;;
7108;SDS011;29079;41.930;25.558;2023-06-14T07:50:05;11.27;;;6.63;;
7108;SDS011;29079;41.930;25.558;2023-06-14T07:52:55;10.05;;;6.30;;
7108;SDS011;29079;41.930;25.558;2023-06-14T07:55:43;9.45;;;7.18;;
7108;SDS011;29079;41.930;25.558;2023-06-14T07:58:39;9.65;;;7.13;;
7108;SDS011;29079;41.930;25.558;2023-06-14T08:01:27;7.35;;;6.65;;
7108;SDS011;29079;41.930;25.558;2023-06-14T08:04:15;9.05;;;6.72;;
7108;SDS011;29079;41.930;25.558;2023-06-14T08:07:03;25.30;;;8.38;;
7108;SDS011;29079;41.930;25.558;2023-06-14T08:09:54;9.70;;;5.80;;
7108;SDS011;29079;41.930;25.558;2023-06-14T08:12:42;7.57;;;6.57;;
7108;SDS011;29079;41.930;25.558;2023-06-14T08:15:30;10.10;;;7.20;;
7108;SDS011;29079;41.930;25.558;2023-06-14T08:18:18;11.80;;;6.97;;
7108;SDS011;29079;41.930;25.558;2023-06-14T08:21:06;7.97;;;6.60;;
7108;SDS011;29079;41.930;25.558;2023-06-14T08:23:54;9.52;;;6.63;;
7108;SDS011;29079;41.930;25.558;2023-06-14T08:26:44;7.38;;;6.38;;
7108;SDS011;29079;41.930;25.558;2023-06-14T08:29:32;7.13;;;6.35;;
7108;SDS011;29079;41.930;25.558;2023-06-14T08:32:20;8.75;;;6.00;;
7108;SDS011;29079;41.930;25.558;2023-06-14T08:35:08;8.18;;;6.28;;
7108;SDS011;29079;41.930;25.558;2023-06-14T08:37:56;8.15;;;6.45;;
7108;SDS011;29079;41.930;25.558;2023-06-14T08:40:44;9.05;;;6.80;;
7108;SDS011;29079;41.930;25.558;2023-06-14T08:43:38;14.02;;;6.20;;
7108;SDS011;29079;41.930;25.558;2023-06-14T08:46:26;7.47;;;6.60;;
7108;SDS011;29079;41.930;25.558;2023-06-14T08:49:16;9.13;;;6.07;;
7108;SDS011;29079;41.930;25.558;2023-06-14T08:52:04;10.60;;;6.72;;
7108;SDS011;29079;41.930;25.558;2023-06-14T08:54:57;8.60;;;6.68;;
7108;SDS011;29079;41.930;25.558;2023-06-14T08:57:46;8.50;;;5.78;;
7108;SDS011;29079;41.930;25.558;2023-06-14T09:00:36;9.00;;;5.80;;
7108;SDS011;29079;41.930;25.558;2023-06-14T09:03:27;12.25;;;7.20;;
7108;SDS011;29079;41.930;25.558;2023-06-14T09:06:17;7.72;;;6.35;;
7108;SDS011;29079;41.930;25.558;2023-06-14T09:09:09;6.75;;;6.05;;
7108;SDS011;29079;41.930;25.558;2023-06-14T09:11:57;6.38;;;5.63;;
7108;SDS011;29079;41.930;25.558;2023-06-14T09:14:45;7.03;;;6.25;;
7108;SDS011;29079;41.930;25.558;2023-06-14T09:17:34;6.38;;;5.28;;
7108;SDS011;29079;41.930;25.558;2023-06-14T09:20:23;8.30;;;5.18;;
7108;SDS011;29079;41.930;25.558;2023-06-14T09:23:12;9.38;;;6.25;;
7108;SDS011;29079;41.930;25.558;2023-06-14T09:26:08;9.88;;;6.38;;
7108;SDS011;29079;41.930;25.558;2023-06-14T09:28:56;6.18;;;5.50;;
7108;SDS011;29079;41.930;25.558;2023-06-14T09:31:48;5.22;;;4.72;;
7108;SDS011;29079;41.930;25.558;2023-06-14T09:34:37;5.70;;;5.20;;
7108;SDS011;29079;41.930;25.558;2023-06-14T09:37:28;8.48;;;5.03;;
7108;SDS011;29079;41.930;25.558;2023-06-14T09:40:19;6.95;;;5.18;;
7108;SDS011;29079;41.930;25.558;2023-06-14T09:43:07;10.25;;;5.75;;
7108;SDS011;29079;41.930;25.558;2023-06-14T09:45:57;8.35;;;5.72;;
7108;SDS011;29079;41.930;25.558;2023-06-14T09:48:45;5.40;;;4.82;;
7108;SDS011;29079;41.930;25.558;2023-06-14T09:51:35;7.53;;;5.35;;
7108;SDS011;29079;41.930;25.558;2023-06-14T09:54:30;7.47;;;4.95;;
7108;SDS011;29079;41.930;25.558;2023-06-14T09:57:20;9.63;;;5.10;;
7108;SDS011;29079;41.930;25.558;2023-06-14T10:00:09;7.65;;;5.32;;
7108;SDS011;29079;41.930;25.558;2023-06-14T10:03:05;8.07;;;4.82;;
7108;SDS011;29079;41.930;25.558;2023-06-14T10:05:58;6.57;;;4.97;;
7108;SDS011;29079;41.930;25.558;2023-06-14T10:08:51;9.05;;;5.95;;
7108;SDS011;29079;41.930;25.558;2023-06-14T10:11:43;7.40;;;4.73;;
7108;SDS011;29079;41.930;25.558;2023-06-14T10:14:32;6.57;;;5.97;;
7108;SDS011;29079;41.930;25.558;2023-06-14T10:17:23;6.63;;;5.25;;
7108;SDS011;29079;41.930;25.558;2023-06-14T10:23:09;8.68;;;5.00;;
7108;SDS011;29079;41.930;25.558;2023-06-14T10:26:08;5.22;;;4.72;;
7108;SDS011;29079;41.930;25.558;2023-06-14T10:29:07;8.68;;;4.75;;
7108;SDS011;29079;41.930;25.558;2023-06-14T10:31:56;7.43;;;5.18;;
7108;SDS011;29079;41.930;25.558;2023-06-14T10:34:45;6.40;;;5.80;;
7108;SDS011;29079;41.930;25.558;2023-06-14T10:37:33;7.40;;;6.35;;
7108;SDS011;29079;41.930;25.558;2023-06-14T10:40:31;6.57;;;6.00;;
7108;SDS011;29079;41.930;25.558;2023-06-14T10:43:22;7.38;;;5.85;;
7108;SDS011;29079;41.930;25.558;2023-06-14T10:46:16;7.40;;;6.75;;
7108;SDS011;29079;41.930;25.558;2023-06-14T10:49:07;8.98;;;6.75;;
7108;SDS011;29079;41.930;25.558;2023-06-14T10:51:55;7.63;;;6.95;;
7108;SDS011;29079;41.930;25.558;2023-06-14T10:57:59;8.00;;;7.28;;
7108;SDS011;29079;41.930;25.558;2023-06-14T11:00:53;7.13;;;6.53;;
7108;SDS011;29079;41.930;25.558;2023-06-14T11:03:48;7.78;;;6.60;;
7108;SDS011;29079;41.930;25.558;2023-06-14T11:06:46;7.80;;;7.20;;
7108;SDS011;29079;41.930;25.558;2023-06-14T11:09:43;8.90;;;8.10;;
7108;SDS011;29079;41.930;25.558;2023-06-14T11:12:49;12.35;;;8.90;;
7108;SDS011;29079;41.930;25.558;2023-06-14T11:15:44;8.80;;;8.00;;
7108;SDS011;29079;41.930;25.558;2023-06-14T11:18:34;9.38;;;8.40;;
7108;SDS011;29079;41.930;25.558;2023-06-14T11:21:24;8.68;;;7.88;;
7108;SDS011;29079;41.930;25.558;2023-06-14T11:24:17;9.50;;;8.60;;
7108;SDS011;29079;41.930;25.558;2023-06-14T11:27:05;8.75;;;7.95;;
7108;SDS011;29079;41.930;25.558;2023-06-14T11:29:55;9.65;;;8.70;;
7108;SDS011;29079;41.930;25.558;2023-06-14T11:32:45;9.65;;;8.38;;
7108;SDS011;29079;41.930;25.558;2023-06-14T11:35:35;9.48;;;8.57;;
7108;SDS011;29079;41.930;25.558;2023-06-14T11:38:24;9.75;;;8.75;;
7108;SDS011;29079;41.930;25.558;2023-06-14T11:41:12;8.95;;;8.15;;
7108;SDS011;29079;41.930;25.558;2023-06-14T11:44:00;8.57;;;7.78;;
7108;SDS011;29079;41.930;25.558;2023-06-14T11:46:49;9.43;;;8.45;;
7108;SDS011;29079;41.930;25.558;2023-06-14T11:49:37;8.15;;;7.50;;
7108;SDS011;29079;41.930;25.558;2023-06-14T11:52:26;10.20;;;9.20;;
7108;SDS011;29079;41.930;25.558;2023-06-14T11:55:14;12.52;;;9.65;;
7108;SDS011;29079;41.930;25.558;2023-06-14T11:58:03;10.80;;;9.88;;
7108;SDS011;29079;41.930;25.558;2023-06-14T12:00:51;12.13;;;10.68;;
7108;SDS011;29079;41.930;25.558;2023-06-14T12:03:41;10.55;;;9.65;;
7108;SDS011;29079;41.930;25.558;2023-06-14T12:06:35;12.35;;;11.15;;
7108;SDS011;29079;41.930;25.558;2023-06-14T12:09:27;9.40;;;8.63;;
7108;SDS011;29079;41.930;25.558;2023-06-14T12:12:16;10.30;;;9.48;;
7108;SDS011;29079;41.930;25.558;2023-06-14T12:15:04;11.73;;;9.65;;
7108;SDS011;29079;41.930;25.558;2023-06-14T12:17:52;9.90;;;9.00;;
7108;SDS011;29079;41.930;25.558;2023-06-14T12:20:41;10.02;;;9.02;;
7108;SDS011;29079;41.930;25.558;2023-06-14T12:23:44;9.88;;;8.98;;
7108;SDS011;29079;41.930;25.558;2023-06-14T12:26:37;11.32;;;10.23;;
7108;SDS011;29079;41.930;25.558;2023-06-14T12:29:26;10.35;;;9.40;;
7108;SDS011;29079;41.930;25.558;2023-06-14T12:32:14;11.63;;;9.80;;
7108;SDS011;29079;41.930;25.558;2023-06-14T12:35:02;11.48;;;10.48;;
7108;SDS011;29079;41.930;25.558;2023-06-14T12:37:50;11.85;;;10.65;;
7108;SDS011;29079;41.930;25.558;2023-06-14T12:40:41;11.65;;;10.30;;
7108;SDS011;29079;41.930;25.558;2023-06-14T12:43:30;9.95;;;9.00;;
7108;SDS011;29079;41.930;25.558;2023-06-14T12:46:18;15.13;;;11.75;;
7108;SDS011;29079;41.930;25.558;2023-06-14T12:49:07;11.30;;;10.05;;
7108;SDS011;29079;41.930;25.558;2023-06-14T12:51:56;10.60;;;9.70;;
7108;SDS011;29079;41.930;25.558;2023-06-14T12:54:44;10.52;;;9.73;;
7108;SDS011;29079;41.930;25.558;2023-06-14T12:57:32;11.18;;;10.18;;
7108;SDS011;29079;41.930;25.558;2023-06-14T13:00:24;9.93;;;9.02;;
7108;SDS011;29079;41.930;25.558;2023-06-14T13:03:13;12.55;;;10.35;;
7108;SDS011;29079;41.930;25.558;2023-06-14T13:06:01;9.25;;;8.35;;
7108;SDS011;29079;41.930;25.558;2023-06-14T13:08:50;10.77;;;9.77;;
7108;SDS011;29079;41.930;25.558;2023-06-14T13:11:41;10.23;;;9.20;;
7108;SDS011;29079;41.930;25.558;2023-06-14T13:14:32;9.82;;;8.93;;
7108;SDS011;29079;41.930;25.558;2023-06-14T13:17:21;10.55;;;9.55;;
7108;SDS011;29079;41.930;25.558;2023-06-14T13:20:09;9.85;;;8.95;;
7108;SDS011;29079;41.930;25.558;2023-06-14T13:22:57;10.18;;;9.27;;
7108;SDS011;29079;41.930;25.558;2023-06-14T13:25:48;9.48;;;8.68;;
7108;SDS011;29079;41.930;25.558;2023-06-14T13:28:37;10.25;;;9.13;;
7108;SDS011;29079;41.930;25.558;2023-06-14T13:31:25;9.00;;;8.13;;
7108;SDS011;29079;41.930;25.558;2023-06-14T13:34:15;9.88;;;8.98;;
7108;SDS011;29079;41.930;25.558;2023-06-14T13:37:03;10.30;;;8.52;;
7108;SDS011;29079;41.930;25.558;2023-06-14T13:39:51;8.70;;;7.90;;
7108;SDS011;29079;41.930;25.558;2023-06-14T13:42:39;16.77;;;9.35;;
7108;SDS011;29079;41.930;25.558;2023-06-14T13:45:27;8.60;;;7.85;;
7108;SDS011;29079;41.930;25.558;2023-06-14T13:48:15;9.30;;;8.38;;
7108;SDS011;29079;41.930;25.558;2023-06-14T13:51:05;8.10;;;7.25;;
7108;SDS011;29079;41.930;25.558;2023-06-14T13:53:53;10.57;;;7.93;;
7108;SDS011;29079;41.930;25.558;2023-06-14T13:56:42;12.13;;;7.57;;
7108;SDS011;29079;41.930;25.558;2023-06-14T13:59:29;9.55;;;8.50;;
7108;SDS011;29079;41.930;25.558;2023-06-14T14:02:18;8.60;;;7.90;;
7108;SDS011;29079;41.930;25.558;2023-06-14T14:05:08;9.10;;;8.20;;
7108;SDS011;29079;41.930;25.558;2023-06-14T14:07:58;8.60;;;8.00;;
7108;SDS011;29079;41.930;25.558;2023-06-14T14:10:46;8.50;;;7.70;;
7108;SDS011;29079;41.930;25.558;2023-06-14T14:13:33;14.02;;;8.90;;
7108;SDS011;29079;41.930;25.558;2023-06-14T14:16:23;8.02;;;7.25;;
7108;SDS011;29079;41.930;25.558;2023-06-14T14:19:10;8.38;;;7.68;;
7108;SDS011;29079;41.930;25.558;2023-06-14T14:21:58;7.93;;;7.28;;
7108;SDS011;29079;41.930;25.558;2023-06-14T14:24:48;10.85;;;8.77;;
7108;SDS011;29079;41.930;25.558;2023-06-14T14:27:36;11.38;;;10.10;;
7108;SDS011;29079;41.930;25.558;2023-06-14T14:30:24;14.20;;;11.40;;
7108;SDS011;29079;41.930;25.558;2023-06-14T14:33:12;20.80;;;16.77;;
7108;SDS011;29079;41.930;25.558;2023-06-14T14:36:02;13.52;;;12.32;;
7108;SDS011;29079;41.930;25.558;2023-06-14T14:38:50;14.60;;;13.07;;
7108;SDS011;29079;41.930;25.558;2023-06-14T14:41:40;11.63;;;7.55;;
7108;SDS011;29079;41.930;25.558;2023-06-14T14:44:28;8.25;;;7.45;;
7108;SDS011;29079;41.930;25.558;2023-06-14T14:47:16;16.75;;;8.60;;
7108;SDS011;29079;41.930;25.558;2023-06-14T14:50:04;7.68;;;7.07;;
7108;SDS011;29079;41.930;25.558;2023-06-14T14:52:55;8.50;;;7.43;;
7108;SDS011;29079;41.930;25.558;2023-06-14T14:55:43;8.00;;;7.20;;
7108;SDS011;29079;41.930;25.558;2023-06-14T14:58:33;7.25;;;6.65;;
7108;SDS011;29079;41.930;25.558;2023-06-14T15:01:21;7.80;;;7.10;;
7108;SDS011;29079;41.930;25.558;2023-06-14T15:04:08;9.32;;;8.32;;
7108;SDS011;29079;41.930;25.558;2023-06-14T15:06:56;10.88;;;9.25;;
7108;SDS011;29079;41.930;25.558;2023-06-14T15:09:44;11.15;;;8.07;;
7108;SDS011;29079;41.930;25.558;2023-06-14T15:12:36;9.15;;;8.25;;
7108;SDS011;29079;41.930;25.558;2023-06-14T15:15:26;8.05;;;7.35;;
7108;SDS011;29079;41.930;25.558;2023-06-14T15:18:14;9.10;;;8.30;;
7108;SDS011;29079;41.930;25.558;2023-06-14T15:21:03;9.00;;;8.10;;
7108;SDS011;29079;41.930;25.558;2023-06-14T15:23:51;11.43;;;10.43;;
7108;SDS011;29079;41.930;25.558;2023-06-14T15:26:39;8.38;;;7.55;;
7108;SDS011;29079;41.930;25.558;2023-06-14T15:29:27;8.95;;;8.25;;
7108;SDS011;29079;41.930;25.558;2023-06-14T15:32:16;10.57;;;9.13;;
7108;SDS011;29079;41.930;25.558;2023-06-14T15:35:04;8.20;;;7.45;;
7108;SDS011;29079;41.930;25.558;2023-06-14T15:37:52;10.05;;;7.93;;
7108;SDS011;29079;41.930;25.558;2023-06-14T15:40:40;8.15;;;7.50;;
7108;SDS011;29079;41.930;25.558;2023-06-14T15:43:28;8.85;;;8.05;;
7108;SDS011;29079;41.930;25.558;2023-06-14T15:46:16;8.77;;;7.65;;
7108;SDS011;29079;41.930;25.558;2023-06-14T15:49:07;7.63;;;7.03;;
7108;SDS011;29079;41.930;25.558;2023-06-14T15:51:57;18.83;;;8.90;;
7108;SDS011;29079;41.930;25.558;2023-06-14T15:54:45;7.72;;;7.13;;
7108;SDS011;29079;41.930;25.558;2023-06-14T15:57:33;7.30;;;6.70;;
7108;SDS011;29079;41.930;25.558;2023-06-14T16:00:21;8.45;;;7.65;;
7108;SDS011;29079;41.930;25.558;2023-06-14T16:03:11;8.10;;;7.25;;
7108;SDS011;29079;41.930;25.558;2023-06-14T16:06:00;6.75;;;6.25;;
7108;SDS011;29079;41.930;25.558;2023-06-14T16:08:48;8.20;;;7.35;;
7108;SDS011;29079;41.930;25.558;2023-06-14T16:11:38;7.53;;;6.93;;
7108;SDS011;29079;41.930;25.558;2023-06-14T16:14:26;6.88;;;6.28;;
7108;SDS011;29079;41.930;25.558;2023-06-14T16:17:14;8.52;;;6.03;;
7108;SDS011;29079;41.930;25.558;2023-06-14T16:20:02;7.85;;;6.05;;
7108;SDS011;29079;41.930;25.558;2023-06-14T16:22:52;8.98;;;8.07;;
7108;SDS011;29079;41.930;25.558;2023-06-14T16:25:40;6.38;;;5.40;;
7108;SDS011;29079;41.930;25.558;2023-06-14T16:28:29;7.30;;;5.60;;
7108;SDS011;29079;41.930;25.558;2023-06-14T16:31:17;8.43;;;6.72;;
7108;SDS011;29079;41.930;25.558;2023-06-14T16:34:05;6.20;;;5.63;;
7108;SDS011;29079;41.930;25.558;2023-06-14T16:36:57;9.75;;;6.53;;
7108;SDS011;29079;41.930;25.558;2023-06-14T16:39:47;7.95;;;7.22;;
7108;SDS011;29079;41.930;25.558;2023-06-14T16:42:34;6.82;;;5.47;;
7108;SDS011;29079;41.930;25.558;2023-06-14T16:45:23;5.40;;;4.90;;
7108;SDS011;29079;41.930;25.558;2023-06-14T16:48:11;6.50;;;4.72;;
7108;SDS011;29079;41.930;25.558;2023-06-14T16:50:59;5.70;;;5.20;;
7108;SDS011;29079;41.930;25.558;2023-06-14T16:53:47;5.88;;;5.38;;
7108;SDS011;29079;41.930;25.558;2023-06-14T16:56:36;6.13;;;5.05;;